sensor_id;sensor_type;location;lat;lon;timestamp;temperature;humidity
74540;SHT31;66042;51.090;-115.340;2023-05-19T00:01:17;31.01;20.50
74540;SHT31;66042;51.090;-115.340;2023-05-19T00:03:51;30.92;20.39
74540;SHT31;66042;51.090;-115.340;2023-05-19T00:06:28;31.15;20.31
74540;SHT31;66042;51.090;-115.340;2023-05-19T00:11:26;31.93;19.53
74540;SHT31;66042;51.090;-115.340;2023-05-19T00:13:57;31.40;19.76
74540;SHT31;66042;51.090;-115.340;2023-05-19T00:16:25;30.81;20.04
74540;SHT31;66042;51.090;-115.340;2023-05-19T00:18:54;30.61;20.22
74540;SHT31;66042;51.090;-115.340;2023-05-19T00:21:25;30.63;20.10
74540;SHT31;66042;51.090;-115.340;2023-05-19T00:23:54;30.32;20.34
74540;SHT31;66042;51.090;-115.340;2023-05-19T00:26:21;30.00;20.82
74540;SHT31;66042;51.090;-115.340;2023-05-19T00:28:49;29.57;21.03
74540;SHT31;66042;51.090;-115.340;2023-05-19T00:31:16;29.24;21.26
74540;SHT31;66042;51.090;-115.340;2023-05-19T00:33:43;29.12;21.55
74540;SHT31;66042;51.090;-115.340;2023-05-19T00:36:10;28.91;21.76
74540;SHT31;66042;51.090;-115.340;2023-05-19T00:38:38;28.70;21.82
74540;SHT31;66042;51.090;-115.340;2023-05-19T00:41:05;28.62;22.07
74540;SHT31;66042;51.090;-115.340;2023-05-19T00:43:32;28.51;22.26
74540;SHT31;66042;51.090;-115.340;2023-05-19T00:45:59;28.34;22.29
74540;SHT31;66042;51.090;-115.340;2023-05-19T00:48:27;28.07;22.43
74540;SHT31;66042;51.090;-115.340;2023-05-19T00:50:58;27.87;22.66
74540;SHT31;66042;51.090;-115.340;2023-05-19T00:53:34;27.73;23.28
74540;SHT31;66042;51.090;-115.340;2023-05-19T00:56:01;27.64;23.66
74540;SHT31;66042;51.090;-115.340;2023-05-19T00:58:28;27.44;23.81
74540;SHT31;66042;51.090;-115.340;2023-05-19T01:00:57;27.24;23.72
74540;SHT31;66042;51.090;-115.340;2023-05-19T01:03:30;27.04;23.73
74540;SHT31;66042;51.090;-115.340;2023-05-19T01:05:59;26.86;23.75
74540;SHT31;66042;51.090;-115.340;2023-05-19T01:08:33;26.72;23.84
74540;SHT31;66042;51.090;-115.340;2023-05-19T01:11:03;26.60;24.08
74540;SHT31;66042;51.090;-115.340;2023-05-19T01:13:31;26.50;24.39
74540;SHT31;66042;51.090;-115.340;2023-05-19T01:22:13;26.17;24.62
74540;SHT31;66042;51.090;-115.340;2023-05-19T01:25:07;26.03;24.61
74540;SHT31;66042;51.090;-115.340;2023-05-19T01:28:13;26.10;24.72
74540;SHT31;66042;51.090;-115.340;2023-05-19T01:31:05;26.16;24.76
74540;SHT31;66042;51.090;-115.340;2023-05-19T01:33:36;26.22;24.77
74540;SHT31;66042;51.090;-115.340;2023-05-19T01:36:06;26.15;24.73
74540;SHT31;66042;51.090;-115.340;2023-05-19T01:38:37;25.93;25.17
74540;SHT31;66042;51.090;-115.340;2023-05-19T01:41:07;25.69;25.29
74540;SHT31;66042;51.090;-115.340;2023-05-19T01:43:36;25.51;25.32
74540;SHT31;66042;51.090;-115.340;2023-05-19T01:46:05;25.36;25.60
74540;SHT31;66042;51.090;-115.340;2023-05-19T01:48:32;25.20;25.64
74540;SHT31;66042;51.090;-115.340;2023-05-19T01:51:00;25.07;25.88
74540;SHT31;66042;51.090;-115.340;2023-05-19T01:53:27;24.91;26.18
74540;SHT31;66042;51.090;-115.340;2023-05-19T01:55:55;24.73;26.17
74540;SHT31;66042;51.090;-115.340;2023-05-19T02:07:12;24.00;27.03
74540;SHT31;66042;51.090;-115.340;2023-05-19T02:10:05;23.80;27.25
74540;SHT31;66042;51.090;-115.340;2023-05-19T02:12:52;23.59;27.65
74540;SHT31;66042;51.090;-115.340;2023-05-19T02:15:24;23.40;27.94
74540;SHT31;66042;51.090;-115.340;2023-05-19T02:17:58;23.24;28.08
74540;SHT31;66042;51.090;-115.340;2023-05-19T02:20:29;23.12;28.46
74540;SHT31;66042;51.090;-115.340;2023-05-19T02:22:56;22.98;28.69
74540;SHT31;66042;51.090;-115.340;2023-05-19T02:25:23;22.84;28.80
74540;SHT31;66042;51.090;-115.340;2023-05-19T02:27:51;22.69;29.10
74540;SHT31;66042;51.090;-115.340;2023-05-19T02:30:19;22.58;29.30
74540;SHT31;66042;51.090;-115.340;2023-05-19T02:32:46;22.48;29.54
74540;SHT31;66042;51.090;-115.340;2023-05-19T02:35:13;22.38;29.76
74540;SHT31;66042;51.090;-115.340;2023-05-19T02:37:41;22.30;30.12
74540;SHT31;66042;51.090;-115.340;2023-05-19T02:40:08;22.20;30.55
74540;SHT31;66042;51.090;-115.340;2023-05-19T02:42:35;22.10;30.73
74540;SHT31;66042;51.090;-115.340;2023-05-19T02:45:02;21.99;30.94
74540;SHT31;66042;51.090;-115.340;2023-05-19T02:47:30;21.87;30.88
74540;SHT31;66042;51.090;-115.340;2023-05-19T02:49:57;21.76;31.02
74540;SHT31;66042;51.090;-115.340;2023-05-19T02:52:24;21.67;31.35
74540;SHT31;66042;51.090;-115.340;2023-05-19T02:54:51;21.55;31.81
74540;SHT31;66042;51.090;-115.340;2023-05-19T02:57:18;21.43;32.01
74540;SHT31;66042;51.090;-115.340;2023-05-19T02:59:46;21.30;32.31
74540;SHT31;66042;51.090;-115.340;2023-05-19T03:02:13;21.19;32.49
74540;SHT31;66042;51.090;-115.340;2023-05-19T03:04:40;21.09;32.63
74540;SHT31;66042;51.090;-115.340;2023-05-19T03:07:07;20.99;32.85
74540;SHT31;66042;51.090;-115.340;2023-05-19T03:09:38;20.90;33.01
74540;SHT31;66042;51.090;-115.340;2023-05-19T03:12:05;20.81;33.42
74540;SHT31;66042;51.090;-115.340;2023-05-19T03:14:33;20.72;33.63
74540;SHT31;66042;51.090;-115.340;2023-05-19T03:17:04;20.60;34.43
74540;SHT31;66042;51.090;-115.340;2023-05-19T03:19:35;20.47;34.82
74540;SHT31;66042;51.090;-115.340;2023-05-19T03:22:02;20.36;35.22
74540;SHT31;66042;51.090;-115.340;2023-05-19T03:24:29;20.17;35.66
74540;SHT31;66042;51.090;-115.340;2023-05-19T03:26:56;20.07;35.68
74540;SHT31;66042;51.090;-115.340;2023-05-19T03:29:24;19.95;35.87
74540;SHT31;66042;51.090;-115.340;2023-05-19T03:31:51;19.83;36.15
74540;SHT31;66042;51.090;-115.340;2023-05-19T03:34:18;19.69;36.37
74540;SHT31;66042;51.090;-115.340;2023-05-19T03:36:46;19.58;36.49
74540;SHT31;66042;51.090;-115.340;2023-05-19T03:39:14;19.46;36.84
74540;SHT31;66042;51.090;-115.340;2023-05-19T03:41:42;19.33;37.01
74540;SHT31;66042;51.090;-115.340;2023-05-19T03:44:09;19.24;37.21
74540;SHT31;66042;51.090;-115.340;2023-05-19T03:46:36;19.11;37.53
74540;SHT31;66042;51.090;-115.340;2023-05-19T03:49:03;19.00;37.68
74540;SHT31;66042;51.090;-115.340;2023-05-19T03:51:30;18.89;37.87
74540;SHT31;66042;51.090;-115.340;2023-05-19T03:53:59;18.79;38.02
74540;SHT31;66042;51.090;-115.340;2023-05-19T03:56:27;18.69;38.37
74540;SHT31;66042;51.090;-115.340;2023-05-19T03:58:54;18.57;38.61
74540;SHT31;66042;51.090;-115.340;2023-05-19T04:01:20;18.47;38.79
74540;SHT31;66042;51.090;-115.340;2023-05-19T04:03:47;18.35;39.03
74540;SHT31;66042;51.090;-115.340;2023-05-19T04:06:15;18.22;39.24
74540;SHT31;66042;51.090;-115.340;2023-05-19T04:08:43;18.09;39.41
74540;SHT31;66042;51.090;-115.340;2023-05-19T04:11:10;17.99;39.62
74540;SHT31;66042;51.090;-115.340;2023-05-19T04:13:37;17.89;39.85
74540;SHT31;66042;51.090;-115.340;2023-05-19T04:16:04;17.80;40.01
74540;SHT31;66042;51.090;-115.340;2023-05-19T04:18:32;17.70;40.26
74540;SHT31;66042;51.090;-115.340;2023-05-19T04:20:59;17.60;40.42
74540;SHT31;66042;51.090;-115.340;2023-05-19T04:23:27;17.51;40.71
74540;SHT31;66042;51.090;-115.340;2023-05-19T04:25:55;17.41;40.88
74540;SHT31;66042;51.090;-115.340;2023-05-19T04:28:23;17.32;41.03
74540;SHT31;66042;51.090;-115.340;2023-05-19T04:30:50;17.24;41.26
74540;SHT31;66042;51.090;-115.340;2023-05-19T04:33:18;17.16;41.33
74540;SHT31;66042;51.090;-115.340;2023-05-19T04:35:45;17.09;41.49
74540;SHT31;66042;51.090;-115.340;2023-05-19T04:38:12;17.00;41.84
74540;SHT31;66042;51.090;-115.340;2023-05-19T04:40:43;16.90;41.99
74540;SHT31;66042;51.090;-115.340;2023-05-19T04:43:10;16.83;42.06
74540;SHT31;66042;51.090;-115.340;2023-05-19T04:45:36;16.74;42.19
74540;SHT31;66042;51.090;-115.340;2023-05-19T04:48:06;16.68;42.32
74540;SHT31;66042;51.090;-115.340;2023-05-19T04:50:33;16.61;42.52
74540;SHT31;66042;51.090;-115.340;2023-05-19T04:53:03;16.56;42.68
74540;SHT31;66042;51.090;-115.340;2023-05-19T04:55:30;16.48;42.91
74540;SHT31;66042;51.090;-115.340;2023-05-19T04:57:57;16.42;43.12
74540;SHT31;66042;51.090;-115.340;2023-05-19T05:00:24;16.34;43.29
74540;SHT31;66042;51.090;-115.340;2023-05-19T05:02:51;16.27;43.43
74540;SHT31;66042;51.090;-115.340;2023-05-19T05:05:17;16.19;43.56
74540;SHT31;66042;51.090;-115.340;2023-05-19T05:07:44;16.14;43.79
74540;SHT31;66042;51.090;-115.340;2023-05-19T05:10:12;16.08;43.96
74540;SHT31;66042;51.090;-115.340;2023-05-19T05:12:39;16.02;44.16
74540;SHT31;66042;51.090;-115.340;2023-05-19T05:15:06;15.96;44.28
74540;SHT31;66042;51.090;-115.340;2023-05-19T05:17:34;15.89;44.42
74540;SHT31;66042;51.090;-115.340;2023-05-19T05:20:02;15.82;44.60
74540;SHT31;66042;51.090;-115.340;2023-05-19T05:22:31;15.76;44.64
74540;SHT31;66042;51.090;-115.340;2023-05-19T05:24:58;15.71;44.78
74540;SHT31;66042;51.090;-115.340;2023-05-19T05:27:26;15.67;44.89
74540;SHT31;66042;51.090;-115.340;2023-05-19T05:29:53;15.61;44.98
74540;SHT31;66042;51.090;-115.340;2023-05-19T05:32:21;15.56;45.18
74540;SHT31;66042;51.090;-115.340;2023-05-19T05:34:48;15.48;45.32
74540;SHT31;66042;51.090;-115.340;2023-05-19T05:37:15;15.42;45.46
74540;SHT31;66042;51.090;-115.340;2023-05-19T05:39:42;15.35;45.61
74540;SHT31;66042;51.090;-115.340;2023-05-19T05:42:09;15.28;45.74
74540;SHT31;66042;51.090;-115.340;2023-05-19T05:44:36;15.24;45.91
74540;SHT31;66042;51.090;-115.340;2023-05-19T05:47:04;15.17;46.11
74540;SHT31;66042;51.090;-115.340;2023-05-19T05:49:32;15.13;46.32
74540;SHT31;66042;51.090;-115.340;2023-05-19T05:52:02;15.07;46.46
74540;SHT31;66042;51.090;-115.340;2023-05-19T05:54:31;15.01;46.67
74540;SHT31;66042;51.090;-115.340;2023-05-19T05:56:59;14.95;46.78
74540;SHT31;66042;51.090;-115.340;2023-05-19T05:59:26;14.89;46.95
74540;SHT31;66042;51.090;-115.340;2023-05-19T06:01:53;14.83;47.08
74540;SHT31;66042;51.090;-115.340;2023-05-19T06:04:21;14.80;47.16
74540;SHT31;66042;51.090;-115.340;2023-05-19T06:06:50;14.74;47.29
74540;SHT31;66042;51.090;-115.340;2023-05-19T06:09:17;14.69;47.52
74540;SHT31;66042;51.090;-115.340;2023-05-19T06:11:45;14.63;47.61
74540;SHT31;66042;51.090;-115.340;2023-05-19T06:14:12;14.56;47.77
74540;SHT31;66042;51.090;-115.340;2023-05-19T06:16:38;14.52;47.91
74540;SHT31;66042;51.090;-115.340;2023-05-19T06:19:06;14.48;48.09
74540;SHT31;66042;51.090;-115.340;2023-05-19T06:21:34;14.43;48.23
74540;SHT31;66042;51.090;-115.340;2023-05-19T06:24:01;14.38;48.34
74540;SHT31;66042;51.090;-115.340;2023-05-19T06:26:28;14.32;48.54
74540;SHT31;66042;51.090;-115.340;2023-05-19T06:28:55;14.26;48.74
74540;SHT31;66042;51.090;-115.340;2023-05-19T06:31:21;14.22;48.86
74540;SHT31;66042;51.090;-115.340;2023-05-19T06:33:50;14.16;48.99
74540;SHT31;66042;51.090;-115.340;2023-05-19T06:36:18;14.12;49.15
74540;SHT31;66042;51.090;-115.340;2023-05-19T06:38:44;14.09;49.27
74540;SHT31;66042;51.090;-115.340;2023-05-19T06:41:12;14.05;49.42
74540;SHT31;66042;51.090;-115.340;2023-05-19T06:43:38;14.01;49.64
74540;SHT31;66042;51.090;-115.340;2023-05-19T06:46:06;13.88;50.15
74540;SHT31;66042;51.090;-115.340;2023-05-19T06:48:33;13.81;50.11
74540;SHT31;66042;51.090;-115.340;2023-05-19T06:51:00;13.81;50.27
74540;SHT31;66042;51.090;-115.340;2023-05-19T06:53:27;13.78;50.30
74540;SHT31;66042;51.090;-115.340;2023-05-19T06:55:53;13.76;50.40
74540;SHT31;66042;51.090;-115.340;2023-05-19T06:58:20;13.73;50.46
74540;SHT31;66042;51.090;-115.340;2023-05-19T07:00:47;13.70;50.60
74540;SHT31;66042;51.090;-115.340;2023-05-19T07:03:14;13.66;50.62
74540;SHT31;66042;51.090;-115.340;2023-05-19T07:05:41;13.63;50.71
74540;SHT31;66042;51.090;-115.340;2023-05-19T07:08:08;13.60;50.81
74540;SHT31;66042;51.090;-115.340;2023-05-19T07:10:35;13.56;50.91
74540;SHT31;66042;51.090;-115.340;2023-05-19T07:13:01;13.51;51.17
74540;SHT31;66042;51.090;-115.340;2023-05-19T07:15:29;13.47;51.24
74540;SHT31;66042;51.090;-115.340;2023-05-19T07:17:57;13.44;51.29
74540;SHT31;66042;51.090;-115.340;2023-05-19T07:20:24;13.40;51.44
74540;SHT31;66042;51.090;-115.340;2023-05-19T07:22:51;13.37;51.49
74540;SHT31;66042;51.090;-115.340;2023-05-19T07:25:18;13.33;51.55
74540;SHT31;66042;51.090;-115.340;2023-05-19T07:27:45;13.25;51.77
74540;SHT31;66042;51.090;-115.340;2023-05-19T07:30:11;13.20;51.84
74540;SHT31;66042;51.090;-115.340;2023-05-19T07:32:41;13.16;51.94
74540;SHT31;66042;51.090;-115.340;2023-05-19T07:35:08;13.14;51.98
74540;SHT31;66042;51.090;-115.340;2023-05-19T07:37:35;13.12;52.05
74540;SHT31;66042;51.090;-115.340;2023-05-19T07:40:03;13.09;52.10
74540;SHT31;66042;51.090;-115.340;2023-05-19T07:42:33;13.05;52.15
74540;SHT31;66042;51.090;-115.340;2023-05-19T07:45:01;13.03;52.23
74540;SHT31;66042;51.090;-115.340;2023-05-19T07:47:28;12.99;52.25
74540;SHT31;66042;51.090;-115.340;2023-05-19T07:49:55;12.94;52.54
74540;SHT31;66042;51.090;-115.340;2023-05-19T07:52:22;12.83;52.71
74540;SHT31;66042;51.090;-115.340;2023-05-19T07:54:49;12.78;52.70
74540;SHT31;66042;51.090;-115.340;2023-05-19T07:57:17;12.77;52.81
74540;SHT31;66042;51.090;-115.340;2023-05-19T07:59:44;12.74;52.81
74540;SHT31;66042;51.090;-115.340;2023-05-19T08:02:12;12.70;52.85
74540;SHT31;66042;51.090;-115.340;2023-05-19T08:04:38;12.67;52.90
74540;SHT31;66042;51.090;-115.340;2023-05-19T08:07:05;12.59;53.15
74540;SHT31;66042;51.090;-115.340;2023-05-19T08:09:32;12.46;53.52
74540;SHT31;66042;51.090;-115.340;2023-05-19T08:11:59;12.39;53.53
74540;SHT31;66042;51.090;-115.340;2023-05-19T08:14:29;12.37;53.61
74540;SHT31;66042;51.090;-115.340;2023-05-19T08:16:57;12.32;53.75
74540;SHT31;66042;51.090;-115.340;2023-05-19T08:19:24;12.30;53.73
74540;SHT31;66042;51.090;-115.340;2023-05-19T08:21:52;12.30;53.70
74540;SHT31;66042;51.090;-115.340;2023-05-19T08:24:20;12.31;53.83
74540;SHT31;66042;51.090;-115.340;2023-05-19T08:26:47;12.29;53.86
74540;SHT31;66042;51.090;-115.340;2023-05-19T08:29:13;12.26;53.95
74540;SHT31;66042;51.090;-115.340;2023-05-19T08:31:40;12.24;53.90
74540;SHT31;66042;51.090;-115.340;2023-05-19T08:34:07;12.21;53.88
74540;SHT31;66042;51.090;-115.340;2023-05-19T08:36:34;12.19;53.97
74540;SHT31;66042;51.090;-115.340;2023-05-19T08:39:01;12.18;54.03
74540;SHT31;66042;51.090;-115.340;2023-05-19T08:41:28;12.18;54.05
74540;SHT31;66042;51.090;-115.340;2023-05-19T08:43:55;12.15;54.02
74540;SHT31;66042;51.090;-115.340;2023-05-19T08:46:23;12.13;54.00
74540;SHT31;66042;51.090;-115.340;2023-05-19T08:48:53;12.07;54.21
74540;SHT31;66042;51.090;-115.340;2023-05-19T08:51:37;12.01;54.39
74540;SHT31;66042;51.090;-115.340;2023-05-19T08:54:20;11.98;54.45
74540;SHT31;66042;51.090;-115.340;2023-05-19T08:56:53;11.95;54.46
74540;SHT31;66042;51.090;-115.340;2023-05-19T08:59:21;11.90;54.71
74540;SHT31;66042;51.090;-115.340;2023-05-19T09:01:48;11.87;54.70
74540;SHT31;66042;51.090;-115.340;2023-05-19T09:04:16;11.86;54.66
74540;SHT31;66042;51.090;-115.340;2023-05-19T09:06:43;11.85;54.79
74540;SHT31;66042;51.090;-115.340;2023-05-19T09:09:11;11.85;54.76
74540;SHT31;66042;51.090;-115.340;2023-05-19T09:11:38;11.81;54.78
74540;SHT31;66042;51.090;-115.340;2023-05-19T09:14:05;11.74;54.98
74540;SHT31;66042;51.090;-115.340;2023-05-19T09:16:32;11.71;55.01
74540;SHT31;66042;51.090;-115.340;2023-05-19T09:19:00;11.70;55.02
74540;SHT31;66042;51.090;-115.340;2023-05-19T09:21:30;11.71;55.02
74540;SHT31;66042;51.090;-115.340;2023-05-19T09:24:06;11.70;54.96
74540;SHT31;66042;51.090;-115.340;2023-05-19T09:26:39;11.68;55.04
74540;SHT31;66042;51.090;-115.340;2023-05-19T09:31:53;11.49;55.58
74540;SHT31;66042;51.090;-115.340;2023-05-19T09:34:30;11.42;55.58
74540;SHT31;66042;51.090;-115.340;2023-05-19T09:36:57;11.42;55.59
74540;SHT31;66042;51.090;-115.340;2023-05-19T09:39:24;11.44;55.56
74540;SHT31;66042;51.090;-115.340;2023-05-19T09:41:53;11.44;55.63
74540;SHT31;66042;51.090;-115.340;2023-05-19T09:44:23;11.41;55.69
74540;SHT31;66042;51.090;-115.340;2023-05-19T09:46:57;11.42;55.60
74540;SHT31;66042;51.090;-115.340;2023-05-19T09:49:28;11.40;55.50
74540;SHT31;66042;51.090;-115.340;2023-05-19T09:52:01;11.33;55.80
74540;SHT31;66042;51.090;-115.340;2023-05-19T09:54:29;11.30;55.93
74540;SHT31;66042;51.090;-115.340;2023-05-19T09:56:57;11.27;55.82
74540;SHT31;66042;51.090;-115.340;2023-05-19T09:59:26;11.27;55.84
74540;SHT31;66042;51.090;-115.340;2023-05-19T10:01:55;11.25;55.93
74540;SHT31;66042;51.090;-115.340;2023-05-19T10:04:25;11.24;55.97
74540;SHT31;66042;51.090;-115.340;2023-05-19T10:06:54;11.23;55.91
74540;SHT31;66042;51.090;-115.340;2023-05-19T10:09:26;11.23;55.95
74540;SHT31;66042;51.090;-115.340;2023-05-19T10:11:57;11.23;55.81
74540;SHT31;66042;51.090;-115.340;2023-05-19T10:14:25;11.19;56.01
74540;SHT31;66042;51.090;-115.340;2023-05-19T10:16:54;11.10;56.17
74540;SHT31;66042;51.090;-115.340;2023-05-19T10:19:27;11.09;56.27
74540;SHT31;66042;51.090;-115.340;2023-05-19T10:21:55;11.06;56.31
74540;SHT31;66042;51.090;-115.340;2023-05-19T10:24:22;11.07;56.35
74540;SHT31;66042;51.090;-115.340;2023-05-19T10:27:22;11.06;56.39
74540;SHT31;66042;51.090;-115.340;2023-05-19T10:29:44;11.04;56.40
74540;SHT31;66042;51.090;-115.340;2023-05-19T10:32:18;11.02;56.45
74540;SHT31;66042;51.090;-115.340;2023-05-19T10:40:27;10.94;56.68
74540;SHT31;66042;51.090;-115.340;2023-05-19T10:45:59;10.86;56.89
74540;SHT31;66042;51.090;-115.340;2023-05-19T10:48:25;10.84;56.93
74540;SHT31;66042;51.090;-115.340;2023-05-19T10:51:00;10.86;56.90
74540;SHT31;66042;51.090;-115.340;2023-05-19T10:53:31;10.84;57.12
74540;SHT31;66042;51.090;-115.340;2023-05-19T10:56:02;10.74;57.43
74540;SHT31;66042;51.090;-115.340;2023-05-19T11:01:17;10.79;57.08
74540;SHT31;66042;51.090;-115.340;2023-05-19T11:03:50;10.81;57.00
74540;SHT31;66042;51.090;-115.340;2023-05-19T11:06:28;10.75;57.35
74540;SHT31;66042;51.090;-115.340;2023-05-19T11:08:58;10.68;57.45
74540;SHT31;66042;51.090;-115.340;2023-05-19T11:14:20;10.68;57.56
74540;SHT31;66042;51.090;-115.340;2023-05-19T11:16:51;10.67;57.52
74540;SHT31;66042;51.090;-115.340;2023-05-19T11:19:28;10.70;57.53
74540;SHT31;66042;51.090;-115.340;2023-05-19T11:22:07;10.69;57.54
74540;SHT31;66042;51.090;-115.340;2023-05-19T11:29:52;10.63;57.98
74540;SHT31;66042;51.090;-115.340;2023-05-19T11:32:23;10.53;58.14
74540;SHT31;66042;51.090;-115.340;2023-05-19T11:34:54;10.56;57.94
74540;SHT31;66042;51.090;-115.340;2023-05-19T11:37:22;10.61;57.79
74540;SHT31;66042;51.090;-115.340;2023-05-19T11:39:50;10.64;57.89
74540;SHT31;66042;51.090;-115.340;2023-05-19T11:42:17;10.63;58.01
74540;SHT31;66042;51.090;-115.340;2023-05-19T11:44:45;10.64;57.90
74540;SHT31;66042;51.090;-115.340;2023-05-19T11:47:12;10.66;57.81
74540;SHT31;66042;51.090;-115.340;2023-05-19T11:49:43;10.67;57.83
74540;SHT31;66042;51.090;-115.340;2023-05-19T11:52:13;10.66;57.92
74540;SHT31;66042;51.090;-115.340;2023-05-19T11:54:40;10.68;57.84
74540;SHT31;66042;51.090;-115.340;2023-05-19T11:57:08;10.69;57.89
74540;SHT31;66042;51.090;-115.340;2023-05-19T11:59:36;10.67;58.04
74540;SHT31;66042;51.090;-115.340;2023-05-19T12:02:17;10.66;58.01
74540;SHT31;66042;51.090;-115.340;2023-05-19T12:04:52;10.67;58.04
74540;SHT31;66042;51.090;-115.340;2023-05-19T12:07:23;10.67;58.04
74540;SHT31;66042;51.090;-115.340;2023-05-19T12:09:51;10.68;58.06
74540;SHT31;66042;51.090;-115.340;2023-05-19T12:12:20;10.69;58.08
74540;SHT31;66042;51.090;-115.340;2023-05-19T12:14:49;10.70;58.11
74540;SHT31;66042;51.090;-115.340;2023-05-19T12:17:18;10.69;58.28
74540;SHT31;66042;51.090;-115.340;2023-05-19T12:19:48;10.72;58.31
74540;SHT31;66042;51.090;-115.340;2023-05-19T12:22:16;10.78;58.14
74540;SHT31;66042;51.090;-115.340;2023-05-19T12:24:45;10.79;58.25
74540;SHT31;66042;51.090;-115.340;2023-05-19T12:27:17;10.81;58.14
74540;SHT31;66042;51.090;-115.340;2023-05-19T12:29:51;10.86;58.19
74540;SHT31;66042;51.090;-115.340;2023-05-19T12:32:26;10.88;58.34
74540;SHT31;66042;51.090;-115.340;2023-05-19T12:34:56;10.86;58.30
74540;SHT31;66042;51.090;-115.340;2023-05-19T12:37:27;10.90;58.07
74540;SHT31;66042;51.090;-115.340;2023-05-19T12:39:54;10.96;57.89
74540;SHT31;66042;51.090;-115.340;2023-05-19T12:42:22;10.99;57.83
74540;SHT31;66042;51.090;-115.340;2023-05-19T12:44:56;10.98;57.98
74540;SHT31;66042;51.090;-115.340;2023-05-19T12:47:32;11.00;57.84
74540;SHT31;66042;51.090;-115.340;2023-05-19T12:50:00;11.04;57.75
74540;SHT31;66042;51.090;-115.340;2023-05-19T12:52:39;11.02;58.18
74540;SHT31;66042;51.090;-115.340;2023-05-19T12:55:18;10.95;58.35
74540;SHT31;66042;51.090;-115.340;2023-05-19T12:57:48;10.90;58.43
74540;SHT31;66042;51.090;-115.340;2023-05-19T13:00:22;10.92;58.29
74540;SHT31;66042;51.090;-115.340;2023-05-19T13:02:56;10.96;58.22
74540;SHT31;66042;51.090;-115.340;2023-05-19T13:05:39;10.97;58.36
74540;SHT31;66042;51.090;-115.340;2023-05-19T13:08:09;10.94;58.61
74540;SHT31;66042;51.090;-115.340;2023-05-19T13:10:42;10.94;58.40
74540;SHT31;66042;51.090;-115.340;2023-05-19T13:13:11;10.96;58.64
74540;SHT31;66042;51.090;-115.340;2023-05-19T13:15:42;10.97;58.49
74540;SHT31;66042;51.090;-115.340;2023-05-19T13:18:13;10.98;58.99
74540;SHT31;66042;51.090;-115.340;2023-05-19T13:20:41;10.93;59.19
74540;SHT31;66042;51.090;-115.340;2023-05-19T13:23:10;10.92;58.92
74540;SHT31;66042;51.090;-115.340;2023-05-19T13:25:39;10.95;58.90
74540;SHT31;66042;51.090;-115.340;2023-05-19T13:28:07;10.96;59.42
74540;SHT31;66042;51.090;-115.340;2023-05-19T13:30:35;10.91;59.82
74540;SHT31;66042;51.090;-115.340;2023-05-19T13:33:05;10.90;59.96
74540;SHT31;66042;51.090;-115.340;2023-05-19T13:35:32;10.90;60.13
74540;SHT31;66042;51.090;-115.340;2023-05-19T13:38:02;10.91;59.68
74540;SHT31;66042;51.090;-115.340;2023-05-19T13:40:31;10.93;59.25
74540;SHT31;66042;51.090;-115.340;2023-05-19T13:42:59;10.99;59.12
74540;SHT31;66042;51.090;-115.340;2023-05-19T13:45:27;11.02;59.55
74540;SHT31;66042;51.090;-115.340;2023-05-19T13:47:54;11.02;59.39
74540;SHT31;66042;51.090;-115.340;2023-05-19T13:50:21;11.06;59.40
74540;SHT31;66042;51.090;-115.340;2023-05-19T13:52:49;11.09;59.42
74540;SHT31;66042;51.090;-115.340;2023-05-19T13:55:16;11.14;59.56
74540;SHT31;66042;51.090;-115.340;2023-05-19T13:57:43;11.20;59.74
74540;SHT31;66042;51.090;-115.340;2023-05-19T14:00:10;11.26;59.14
74540;SHT31;66042;51.090;-115.340;2023-05-19T14:02:37;11.33;58.92
74540;SHT31;66042;51.090;-115.340;2023-05-19T14:05:05;11.41;58.86
74540;SHT31;66042;51.090;-115.340;2023-05-19T14:07:32;11.49;58.46
74540;SHT31;66042;51.090;-115.340;2023-05-19T14:10:00;11.57;58.46
74540;SHT31;66042;51.090;-115.340;2023-05-19T14:12:30;11.63;58.72
74540;SHT31;66042;51.090;-115.340;2023-05-19T14:14:57;11.69;59.04
74540;SHT31;66042;51.090;-115.340;2023-05-19T14:17:26;11.75;59.01
74540;SHT31;66042;51.090;-115.340;2023-05-19T14:19:52;11.83;59.18
74540;SHT31;66042;51.090;-115.340;2023-05-19T14:22:20;11.90;59.09
74540;SHT31;66042;51.090;-115.340;2023-05-19T14:24:47;11.98;58.68
74540;SHT31;66042;51.090;-115.340;2023-05-19T14:27:14;12.05;58.72
74540;SHT31;66042;51.090;-115.340;2023-05-19T14:29:41;12.12;59.01
74540;SHT31;66042;51.090;-115.340;2023-05-19T14:32:08;12.20;58.74
74540;SHT31;66042;51.090;-115.340;2023-05-19T14:34:35;12.27;58.86
74540;SHT31;66042;51.090;-115.340;2023-05-19T14:37:02;12.33;58.69
74540;SHT31;66042;51.090;-115.340;2023-05-19T14:39:29;12.40;58.60
74540;SHT31;66042;51.090;-115.340;2023-05-19T14:41:56;12.48;58.76
74540;SHT31;66042;51.090;-115.340;2023-05-19T14:44:30;12.54;58.62
74540;SHT31;66042;51.090;-115.340;2023-05-19T14:47:00;12.61;58.27
74540;SHT31;66042;51.090;-115.340;2023-05-19T14:49:28;12.69;58.52
74540;SHT31;66042;51.090;-115.340;2023-05-19T14:51:55;12.77;58.57
74540;SHT31;66042;51.090;-115.340;2023-05-19T14:54:22;12.84;58.44
74540;SHT31;66042;51.090;-115.340;2023-05-19T14:56:49;12.93;58.25
74540;SHT31;66042;51.090;-115.340;2023-05-19T14:59:16;13.03;57.88
74540;SHT31;66042;51.090;-115.340;2023-05-19T15:01:43;13.15;57.78
74540;SHT31;66042;51.090;-115.340;2023-05-19T15:04:11;13.29;57.27
74540;SHT31;66042;51.090;-115.340;2023-05-19T15:06:38;13.38;57.07
74540;SHT31;66042;51.090;-115.340;2023-05-19T15:09:06;13.49;57.14
74540;SHT31;66042;51.090;-115.340;2023-05-19T15:11:33;13.61;57.06
74540;SHT31;66042;51.090;-115.340;2023-05-19T15:14:01;13.71;57.00
74540;SHT31;66042;51.090;-115.340;2023-05-19T15:16:28;13.85;56.75
74540;SHT31;66042;51.090;-115.340;2023-05-19T15:18:55;13.97;56.51
74540;SHT31;66042;51.090;-115.340;2023-05-19T15:21:22;14.06;56.19
74540;SHT31;66042;51.090;-115.340;2023-05-19T15:23:49;14.18;55.94
74540;SHT31;66042;51.090;-115.340;2023-05-19T15:26:16;14.31;55.42
74540;SHT31;66042;51.090;-115.340;2023-05-19T15:28:43;14.40;55.37
74540;SHT31;66042;51.090;-115.340;2023-05-19T15:31:10;14.51;55.36
74540;SHT31;66042;51.090;-115.340;2023-05-19T15:33:37;14.65;55.29
74540;SHT31;66042;51.090;-115.340;2023-05-19T15:36:04;14.74;55.03
74540;SHT31;66042;51.090;-115.340;2023-05-19T15:38:33;14.80;54.88